Time;durP1;ratioP1;P1;durP2;ratioP2;P2;SDS_P1;SDS_P2;PMS_P1;PMS_P2;Temp;Humidity;BMP_temperature;BMP_pressure;BME280_temperature;BME280_humidity;BME280_pressure;Samples;Min_cycle;Max_cycle;Signal;HPM_P1;HPM_P2
2021/01/06 00:01:32;;;;;;;3.75;1.15;;;;;;;1.00;52.07;101991.78;5013857;28;20030;-70
2021/01/06 00:03:58;;;;;;;3.72;1.10;;;;;;;1.26;51.57;101999.97;5025471;28;20491;-70
2021/01/06 00:06:28;;;;;;;4.80;0.90;;;;;;;1.18;51.76;101995.53;5000621;28;20034;-70
2021/01/06 00:08:54;;;;;;;4.13;1.08;;;;;;;0.97;51.93;101990.84;5005974;28;20091;-70
2021/01/06 00:11:22;;;;;;;7.25;1.58;;;;;;;0.97;52.03;101990.84;5007370;28;20508;-70
2021/01/06 00:13:49;;;;;;;4.65;0.70;;;;;;;0.99;52.20;101987.47;5009068;28;20102;-70
2021/01/06 00:16:14;;;;;;;7.43;1.15;;;;;;;1.09;51.84;101991.06;5009516;28;20061;-70
2021/01/06 00:18:40;;;;;;;4.47;1.33;;;;;;;0.91;52.03;101994.19;5005794;28;20080;-70
2021/01/06 00:21:06;;;;;;;4.38;1.20;;;;;;;1.09;51.80;101986.78;5011852;28;20033;-70
2021/01/06 00:23:32;;;;;;;3.78;1.08;;;;;;;1.14;51.29;101978.28;4989651;28;20092;-70
2021/01/06 00:25:57;;;;;;;4.80;0.95;;;;;;;0.85;52.11;101992.34;5021863;28;20391;-71
2021/01/06 00:28:23;;;;;;;3.13;1.13;;;;;;;0.71;52.37;101988.66;5005756;28;20026;-70
2021/01/06 00:30:52;;;;;;;3.20;0.85;;;;;;;0.64;52.71;101977.41;5004519;28;20034;-70
2021/01/06 00:33:22;;;;;;;18.73;2.25;;;;;;;0.71;52.61;101978.38;5022873;28;20025;-70
2021/01/06 00:35:57;;;;;;;3.03;1.17;;;;;;;0.61;52.62;101977.34;5006544;28;20022;-70
2021/01/06 00:38:24;;;;;;;9.32;2.40;;;;;;;0.65;52.98;101986.84;5012856;28;20033;-71
2021/01/06 00:40:49;;;;;;;2.90;1.08;;;;;;;0.45;52.98;101971.00;5010867;28;20403;-70
2021/01/06 00:43:16;;;;;;;3.50;0.68;;;;;;;0.53;52.82;101983.19;5008052;28;20092;-70
2021/01/06 00:45:43;;;;;;;4.53;1.23;;;;;;;0.82;51.93;101976.00;5005596;28;20033;-70
2021/01/06 00:48:10;;;;;;;2.15;0.73;;;;;;;0.55;52.72;101982.38;5004416;28;20034;-70
2021/01/06 00:50:37;;;;;;;4.28;0.90;;;;;;;0.63;52.54;101980.78;5009578;28;20034;-70
2021/01/06 00:53:13;;;;;;;3.47;1.00;;;;;;;0.55;52.74;101984.94;4994511;28;20037;-70
2021/01/06 00:55:38;;;;;;;3.50;1.23;;;;;;;0.63;52.58;101978.22;5021438;28;20573;-71
2021/01/06 00:58:05;;;;;;;3.00;0.68;;;;;;;0.52;52.75;101979.72;5012180;28;20032;-70
2021/01/06 01:00:31;;;;;;;4.57;0.93;;;;;;;0.58;52.47;101977.28;5016660;28;20041;-70
2021/01/06 01:03:02;;;;;;;2.20;0.80;;;;;;;0.72;52.14;101974.94;4994113;28;20109;-71
2021/01/06 01:05:32;;;;;;;3.35;1.02;;;;;;;0.76;51.95;101968.16;5009833;28;20055;-72
2021/01/06 01:07:58;;;;;;;2.88;0.98;;;;;;;0.63;52.51;101978.22;5016355;28;20423;-72
2021/01/06 01:10:34;;;;;;;3.28;0.93;;;;;;;0.44;53.01;101971.00;5014572;28;20030;-72
2021/01/06 01:13:03;;;;;;;3.65;0.77;;;;;;;0.52;52.70;101971.13;5012339;28;20034;-71
2021/01/06 01:15:31;;;;;;;3.95;0.70;;;;;;;0.56;52.49;101973.81;5017251;28;20029;-72
2021/01/06 01:17:57;;;;;;;2.88;0.60;;;;;;;0.73;52.25;101968.97;5011234;28;20100;-72
2021/01/06 01:20:23;;;;;;;5.07;1.25;;;;;;;0.46;52.67;101972.75;5004272;28;20523;-72
2021/01/06 01:22:49;;;;;;;7.10;1.25;;;;;;;0.61;52.49;101967.06;4991657;28;20026;-72
2021/01/06 01:25:19;;;;;;;3.50;1.00;;;;;;;0.74;52.21;101967.28;5014236;28;20029;-71
2021/01/06 01:27:44;;;;;;;2.22;1.20;;;;;;;0.49;52.79;101971.94;5009718;28;20156;-71
2021/01/06 01:30:16;;;;;;;5.32;1.30;;;;;;;0.77;52.20;101963.06;5013000;28;21050;-71
2021/01/06 01:32:43;;;;;;;2.13;0.68;;;;;;;0.73;52.56;101962.97;4992073;28;20030;-72
2021/01/06 01:35:11;;;;;;;5.82;0.95;;;;;;;0.62;52.77;101963.63;5014501;28;20446;-70
2021/01/06 01:37:40;;;;;;;4.03;0.95;;;;;;;0.99;51.71;101966.88;5010142;28;20443;-70
2021/01/06 01:40:07;;;;;;;3.47;0.73;;;;;;;0.85;52.48;101965.75;5011351;28;20037;-70
2021/01/06 01:42:32;;;;;;;6.70;0.80;;;;;;;0.90;51.87;101961.53;4992891;28;20238;-70
2021/01/06 01:45:05;;;;;;;2.65;0.95;;;;;;;0.84;52.16;101964.91;5015935;28;20596;-70
2021/01/06 01:47:55;;;;;;;2.90;0.60;;;;;;;1.03;52.04;101966.06;4999281;28;20034;-70
2021/01/06 01:50:22;;;;;;;2.45;0.80;;;;;;;0.86;52.42;101964.94;5036761;28;20125;-70
2021/01/06 01:52:52;;;;;;;4.97;0.82;;;;;;;0.84;52.41;101961.47;5019753;28;20030;-70
2021/01/06 01:55:20;;;;;;;4.20;1.13;;;;;;;0.95;52.01;101956.47;5017158;28;20563;-70
2021/01/06 01:57:52;;;;;;;3.08;0.90;;;;;;;1.04;51.99;101957.53;4995063;28;20034;-70
2021/01/06 02:00:24;;;;;;;3.97;0.60;;;;;;;1.09;52.01;101961.03;5024402;28;20025;-71
2021/01/06 02:03:02;;;;;;;2.22;0.70;;;;;;;1.15;51.86;101949.09;5010938;28;20084;-72
2021/01/06 02:05:41;;;;;;;6.30;1.33;;;;;;;0.96;52.31;101947.94;5026719;28;20543;-71
2021/01/06 02:08:35;;;;;;;4.43;1.02;;;;;;;1.15;51.41;101949.09;5011142;28;20038;-71
2021/01/06 02:11:09;;;;;;;4.10;0.65;;;;;;;1.26;51.48;101937.25;5005399;28;20622;-71
2021/01/06 02:13:41;;;;;;;2.58;1.20;;;;;;;1.21;51.37;101944.06;5014475;28;20034;-72
2021/01/06 02:16:31;;;;;;;2.70;0.60;;;;;;;1.03;51.54;101942.03;5011592;28;20060;-72
2021/01/06 02:18:56;;;;;;;1.50;0.63;;;;;;;1.17;51.34;101931.97;4993235;28;20048;-71
2021/01/06 02:21:25;;;;;;;2.47;0.63;;;;;;;1.30;50.90;101933.88;5011063;28;20117;-71
2021/01/06 02:23:54;;;;;;;3.50;0.82;;;;;;;1.44;50.51;101932.44;5008172;28;20475;-72
2021/01/06 02:26:20;;;;;;;2.17;0.57;;;;;;;1.30;50.80;101928.72;5010345;28;20034;-72
2021/01/06 02:28:48;;;;;;;7.28;0.68;;;;;;;1.38;50.80;101936.59;5022076;28;20026;-71
2021/01/06 02:31:15;;;;;;;3.10;0.80;;;;;;;1.40;50.29;101928.09;5008709;28;20029;-70
2021/01/06 02:33:41;;;;;;;1.90;0.52;;;;;;;1.42;50.15;101928.13;5013842;28;20478;-71
2021/01/06 02:36:07;;;;;;;2.13;0.82;;;;;;;1.38;50.39;101922.00;4995093;28;20434;-71
2021/01/06 02:38:33;;;;;;;5.15;0.57;;;;;;;1.35;50.43;101921.06;5005412;28;20030;-70
2021/01/06 02:40:59;;;;;;;3.78;0.60;;;;;;;1.40;50.65;101927.19;4992509;28;20289;-72
2021/01/06 02:43:27;;;;;;;5.53;0.73;;;;;;;1.42;50.15;101921.25;5000710;28;20038;-72
2021/01/06 02:45:54;;;;;;;3.38;0.95;;;;;;;1.46;50.19;101917.88;5013080;28;20438;-71
2021/01/06 02:48:20;;;;;;;2.38;0.85;;;;;;;1.51;50.09;101921.38;5020428;28;20064;-70
2021/01/06 02:50:52;;;;;;;3.50;0.45;;;;;;;1.50;50.18;101917.06;5012929;28;20056;-70
2021/01/06 02:53:24;;;;;;;1.40;0.77;;;;;;;1.32;50.48;101922.75;5007859;28;20060;-70
2021/01/06 02:55:52;;;;;;;1.50;0.40;;;;;;;1.49;49.86;101912.75;5012780;28;20084;-70
2021/01/06 02:58:22;;;;;;;4.90;0.47;;;;;;;1.37;49.98;101919.41;5025590;28;20057;-70
2021/01/06 03:00:52;;;;;;;4.30;0.50;;;;;;;1.45;49.83;101916.13;5023367;28;20087;-72
2021/01/06 03:03:20;;;;;;;2.40;0.45;;;;;;;1.53;49.49;101903.38;5022211;28;20032;-70
2021/01/06 03:05:54;;;;;;;1.65;0.50;;;;;;;1.46;49.67;101898.94;4992481;28;20387;-72
2021/01/06 03:08:19;;;;;;;2.95;0.38;;;;;;;1.38;49.95;101906.53;5015508;28;20045;-70
2021/01/06 03:10:46;;;;;;;2.00;0.63;;;;;;;1.45;49.61;101903.25;5003331;28;20056;-71
2021/01/06 03:13:12;;;;;;;2.67;0.68;;;;;;;1.49;49.50;101896.44;5010738;28;20491;-70
2021/01/06 03:15:38;;;;;;;1.65;0.40;;;;;;;1.28;50.01;101892.69;4990357;28;20113;-71
2021/01/06 03:18:04;;;;;;;4.38;0.40;;;;;;;1.31;49.79;101887.56;5015491;28;20021;-70
2021/01/06 03:20:38;;;;;;;5.93;0.98;;;;;;;1.54;49.15;101893.91;5011501;28;20033;-70
2021/01/06 03:23:22;;;;;;;1.58;0.63;;;;;;;1.36;49.51;101881.63;5010396;28;20726;-73
2021/01/06 03:25:48;;;;;;;2.60;0.68;;;;;;;1.47;49.24;101877.50;5014312;28;20034;-70
2021/01/06 03:28:17;;;;;;;1.20;0.43;;;;;;;1.28;49.76;101876.34;5023339;28;20033;-70
2021/01/06 03:30:44;;;;;;;2.33;0.45;;;;;;;1.38;49.49;101874.78;5000547;28;20057;-70
2021/01/06 03:33:22;;;;;;;1.90;0.30;;;;;;;1.36;49.50;101874.75;5018748;28;20040;-70
2021/01/06 03:35:59;;;;;;;2.80;0.43;;;;;;;1.31;49.69;101869.53;5004804;28;20109;-71
2021/01/06 03:38:37;;;;;;;6.60;0.65;;;;;;;1.35;49.26;101860.16;5005814;28;20029;-71
2021/01/06 03:41:06;;;;;;;0.82;0.38;;;;;;;1.37;49.39;101867.88;5004719;28;20025;-71
2021/01/06 03:43:36;;;;;;;3.83;0.50;;;;;;;1.29;49.08;101860.91;5003798;28;20030;-70
2021/01/06 03:46:13;;;;;;;1.60;0.40;;;;;;;1.41;49.07;101865.41;4995371;28;20033;-71
2021/01/06 03:49:05;;;;;;;2.58;0.40;;;;;;;1.46;49.00;101858.63;5008924;28;20460;-70
2021/01/06 03:54:22;;;;;;;3.10;0.60;;;;;;;1.40;48.98;101843.06;5000981;28;20045;-69
2021/01/06 03:56:49;;;;;;;3.58;0.47;;;;;;;1.42;48.71;101843.09;4990771;28;20125;-69
2021/01/06 03:59:23;;;;;;;3.75;0.63;;;;;;;1.30;48.86;101846.31;5006286;28;20034;-68
2021/01/06 04:01:57;;;;;;;1.30;0.50;;;;;;;1.39;48.74;101845.56;5004773;28;20029;-68
2021/01/06 04:04:43;;;;;;;2.45;0.50;;;;;;;1.15;49.17;101841.81;5006688;28;20550;-68
2021/01/06 04:07:17;;;;;;;3.65;1.13;;;;;;;1.34;48.60;101840.38;5024104;28;20427;-71
2021/01/06 04:10:11;;;;;;;3.63;0.55;;;;;;;1.45;48.36;101831.09;5008261;28;20038;-69
2021/01/06 04:12:37;;;;;;;5.22;0.60;;;;;;;1.45;48.06;101830.25;4993847;28;20045;-69
2021/01/06 04:15:05;;;;;;;3.05;0.50;;;;;;;1.28;48.16;101832.53;4989984;28;20052;-70
2021/01/06 04:17:34;;;;;;;1.63;0.60;;;;;;;1.51;47.87;101832.91;5025001;28;20475;-67
2021/01/06 04:20:20;;;;;;;3.17;0.20;;;;;;;1.55;47.48;101832.13;5002752;28;20030;-69
2021/01/06 04:22:51;;;;;;;1.85;0.47;;;;;;;1.70;47.24;101831.41;5002826;28;20487;-70
2021/01/06 04:25:26;;;;;;;6.25;0.60;;;;;;;1.42;47.49;101830.22;5008225;28;20025;-68
2021/01/06 04:27:58;;;;;;;5.32;0.63;;;;;;;1.41;47.80;101824.19;5006963;28;20263;-71
2021/01/06 04:30:30;;;;;;;0.85;0.30;;;;;;;1.48;47.79;101818.28;5003756;28;20022;-71
2021/01/06 04:32:56;;;;;;;2.92;0.40;;;;;;;1.40;47.75;101814.72;5006558;28;20072;-70
2021/01/06 04:35:23;;;;;;;2.97;0.60;;;;;;;1.40;47.90;101812.16;4990999;28;20034;-71
2021/01/06 04:37:49;;;;;;;1.67;0.35;;;;;;;1.37;47.73;101806.91;5006040;28;20033;-68
2021/01/06 04:40:19;;;;;;;1.10;0.30;;;;;;;1.39;47.32;101807.78;5007013;28;20077;-70
2021/01/06 04:42:44;;;;;;;1.05;0.20;;;;;;;1.60;46.81;101801.25;5007727;28;20030;-68
2021/01/06 04:45:15;;;;;;;1.10;0.52;;;;;;;1.11;47.60;101799.72;5005679;28;20100;-71
2021/01/06 04:47:49;;;;;;;4.75;0.45;;;;;;;1.58;46.44;101800.34;5005654;28;20045;-71
2021/01/06 04:50:40;;;;;;;5.72;0.63;;;;;;;1.55;46.25;101800.31;5006531;28;20041;-70
2021/01/06 04:53:42;;;;;;;0.93;0.20;;;;;;;1.45;45.74;101794.19;5005450;28;20460;-72
2021/01/06 04:56:58;;;;;;;5.68;0.38;;;;;;;1.55;45.78;101796.03;5010440;28;20455;-69
2021/01/06 04:59:44;;;;;;;1.25;0.32;;;;;;;1.45;46.02;101795.03;4977320;28;20041;-70
2021/01/06 05:02:12;;;;;;;2.28;0.30;;;;;;;1.31;46.28;101791.41;5011435;28;20426;-70
2021/01/06 05:04:50;;;;;;;0.57;0.10;;;;;;;1.40;46.17;101785.50;5007630;28;20045;-70
2021/01/06 05:07:30;;;;;;;2.10;0.20;;;;;;;1.28;46.57;101788.75;5007281;28;20483;-72
2021/01/06 05:10:05;;;;;;;2.28;0.20;;;;;;;1.50;46.10;101788.22;5007051;28;20033;-71
2021/01/06 05:12:48;;;;;;;5.50;0.45;;;;;;;1.40;46.60;101786.38;5022778;28;20034;-72
2021/01/06 05:15:24;;;;;;;5.70;0.40;;;;;;;1.39;46.93;101783.75;5003978;28;20132;-71
2021/01/06 05:17:49;;;;;;;1.20;0.47;;;;;;;1.46;46.89;101791.63;5007188;28;20033;-71
2021/01/06 05:20:15;;;;;;;6.03;0.47;;;;;;;1.37;46.92;101781.16;5006981;28;20029;-71
2021/01/06 05:22:41;;;;;;;9.13;1.10;;;;;;;1.41;47.53;101788.09;5006326;28;20034;-73
2021/01/06 05:25:13;;;;;;;4.63;0.52;;;;;;;1.59;47.40;101781.47;5005483;28;20034;-71
2021/01/06 05:27:40;;;;;;;1.83;0.35;;;;;;;1.39;47.90;101783.75;5006106;28;20033;-72
2021/01/06 05:30:21;;;;;;;2.80;0.73;;;;;;;1.34;48.00;101773.41;5005056;28;20043;-71
2021/01/06 05:32:47;;;;;;;1.95;0.28;;;;;;;1.34;48.01;101775.97;5022459;28;20487;-71
2021/01/06 05:35:19;;;;;;;2.13;0.50;;;;;;;1.48;47.99;101771.91;5003538;28;20037;-71
2021/01/06 05:37:53;;;;;;;1.88;0.63;;;;;;;1.33;48.16;101774.25;5003031;28;20029;-72
2021/01/06 05:40:19;;;;;;;5.60;1.00;;;;;;;1.47;47.86;101771.88;5012767;28;20030;-71
2021/01/06 05:42:55;;;;;;;4.10;0.73;;;;;;;1.40;47.96;101780.34;5006863;28;20034;-71
2021/01/06 05:45:26;;;;;;;4.53;0.40;;;;;;;1.17;48.44;101773.19;5007401;28;20041;-70
2021/01/06 05:47:55;;;;;;;2.30;0.50;;;;;;;1.27;48.03;101769.00;5010573;28;20739;-71
2021/01/06 05:50:25;;;;;;;1.50;0.50;;;;;;;1.37;47.85;101757.97;5027287;28;20061;-71
2021/01/06 05:52:58;;;;;;;2.60;0.80;;;;;;;1.17;48.34;101762.00;5008845;28;20037;-72
2021/01/06 05:55:25;;;;;;;1.88;0.40;;;;;;;1.32;47.92;101763.06;5011624;28;20032;-73
2021/01/06 05:58:07;;;;;;;2.65;0.50;;;;;;;1.21;48.10;101758.63;5026088;28;20026;-72
2021/01/06 06:00:46;;;;;;;2.85;0.80;;;;;;;1.06;48.50;101760.16;5022881;28;20038;-70
2021/01/06 06:03:34;;;;;;;4.85;0.70;;;;;;;1.00;48.41;101760.06;5010792;28;20431;-70
2021/01/06 06:06:03;;;;;;;4.78;0.70;;;;;;;1.28;47.70;101768.16;5010499;28;20022;-71
2021/01/06 06:08:48;;;;;;;3.38;0.60;;;;;;;1.02;48.76;101758.38;5008216;28;20054;-72
2021/01/06 06:11:32;;;;;;;2.22;0.50;;;;;;;1.20;48.14;101764.63;5007118;28;20049;-71
2021/01/06 06:14:16;;;;;;;3.50;0.45;;;;;;;1.36;47.62;101758.81;5009834;28;20639;-70
2021/01/06 06:17:11;;;;;;;3.95;0.40;;;;;;;1.37;47.55;101757.97;5009922;28;20052;-70
2021/01/06 06:20:01;;;;;;;1.65;0.40;;;;;;;1.36;47.84;101757.97;5010048;28;20029;-71
2021/01/06 06:22:45;;;;;;;2.28;0.50;;;;;;;1.36;47.80;101750.25;5015339;28;20502;-72
2021/01/06 06:25:25;;;;;;;4.00;0.90;;;;;;;1.35;47.60;101751.06;5028245;28;20086;-71
2021/01/06 06:28:15;;;;;;;2.10;0.75;;;;;;;1.31;47.58;101755.34;5029551;28;20121;-71
2021/01/06 06:31:11;;;;;;;3.58;0.60;;;;;;;1.18;47.99;101748.28;5012607;28;20049;-70
2021/01/06 06:33:37;;;;;;;1.77;1.23;;;;;;;1.24;47.61;101758.69;5026111;28;20044;-72
2021/01/06 06:36:11;;;;;;;3.30;1.13;;;;;;;1.21;47.99;101758.63;5011589;28;20061;-72
2021/01/06 06:38:45;;;;;;;3.10;0.50;;;;;;;1.26;47.63;101754.38;5024028;28;20126;-72
2021/01/06 06:41:34;;;;;;;2.08;0.40;;;;;;;1.29;47.59;101747.59;5007548;28;20053;-70
2021/01/06 06:44:22;;;;;;;1.35;0.40;;;;;;;1.20;47.90;101756.91;5006386;28;20476;-70
2021/01/06 06:47:14;;;;;;;2.58;0.57;;;;;;;1.15;47.67;101748.25;5001617;28;20585;-71
2021/01/06 06:49:45;;;;;;;;;;;;;;;1.27;47.52;101753.56;5003368;28;20077;-71
2021/01/06 06:52:36;;;;;;;3.45;0.40;;;;;;;1.25;47.35;101755.25;5008324;28;19929;-70
2021/01/06 06:55:10;;;;;;;1.35;0.45;;;;;;;1.17;47.46;101751.69;5005975;28;20030;-70
2021/01/06 06:57:46;;;;;;;2.00;0.73;;;;;;;1.20;47.63;101751.75;5007490;28;20026;-72
2021/01/06 07:00:26;;;;;;;1.40;0.50;;;;;;;1.25;47.38;101739.81;5010844;28;20390;-70
2021/01/06 07:02:57;;;;;;;4.65;0.90;;;;;;;1.26;47.32;101744.09;5007806;28;20516;-70
2021/01/06 07:05:34;;;;;;;1.63;0.47;;;;;;;1.24;47.44;101753.53;5009360;28;20026;-72
2021/01/06 07:08:07;;;;;;;3.85;1.15;;;;;;;1.24;47.34;101748.38;5010382;28;20029;-71
2021/01/06 07:10:46;;;;;;;1.05;0.52;;;;;;;1.25;47.19;101750.09;5007098;28;20036;-72
2021/01/06 07:13:19;;;;;;;3.60;0.82;;;;;;;1.01;48.18;101753.19;5008667;28;20049;-70
2021/01/06 07:15:51;;;;;;;2.80;0.88;;;;;;;1.26;47.75;101752.69;5024810;28;20479;-73
2021/01/06 07:18:34;;;;;;;4.60;0.95;;;;;;;1.25;47.72;101755.25;5007477;28;20119;-71
2021/01/06 07:21:32;;;;;;;3.65;1.02;;;;;;;1.31;47.69;101760.50;5022386;28;20135;-70
2021/01/06 07:24:14;;;;;;;3.17;0.88;;;;;;;1.35;47.50;101756.22;4992935;28;20132;-71
2021/01/06 07:26:44;;;;;;;2.83;0.95;;;;;;;1.41;47.92;101752.03;5007126;28;20026;-71
2021/01/06 07:29:15;;;;;;;3.55;1.08;;;;;;;1.39;48.02;101751.13;5009062;28;20036;-70
2021/01/06 07:31:56;;;;;;;3.53;1.02;;;;;;;1.32;48.73;101754.47;5009858;28;20376;-70
2021/01/06 07:34:29;;;;;;;3.08;0.82;;;;;;;1.24;48.82;101758.69;5006649;28;20037;-71
2021/01/06 07:36:59;;;;;;;5.32;1.45;;;;;;;1.45;48.37;101756.38;5010322;28;20033;-71
2021/01/06 07:39:30;;;;;;;3.38;1.17;;;;;;;1.56;48.19;101751.38;5010501;28;20045;-70
2021/01/06 07:42:01;;;;;;;8.10;1.80;;;;;;;1.42;48.98;101753.78;5008662;28;20034;-69
2021/01/06 07:44:38;;;;;;;5.85;1.52;;;;;;;1.61;48.53;101746.25;5009975;28;20057;-70
2021/01/06 07:47:08;;;;;;;3.90;1.70;;;;;;;1.31;48.98;101745.03;5024549;28;20064;-72
2021/01/06 07:49:37;;;;;;;5.63;1.23;;;;;;;1.50;48.35;101747.00;5006650;28;20037;-67
2021/01/06 07:52:27;;;;;;;3.53;1.23;;;;;;;1.39;48.89;101743.41;5006084;28;20088;-67
2021/01/06 07:55:00;;;;;;;3.67;1.17;;;;;;;1.45;48.75;101743.50;5006321;28;20130;-69
2021/01/06 07:57:37;;;;;;;6.78;1.13;;;;;;;1.45;48.69;101740.06;5009104;28;20041;-70
2021/01/06 08:00:28;;;;;;;2.72;0.88;;;;;;;1.50;48.49;101731.53;5007922;28;20038;-68
2021/01/06 08:03:05;;;;;;;5.78;1.05;;;;;;;1.46;48.46;101732.38;5010157;28;20030;-69
2021/01/06 08:05:33;;;;;;;6.15;1.30;;;;;;;1.51;48.38;101732.44;4994494;28;20037;-70
2021/01/06 08:08:15;;;;;;;4.90;0.88;;;;;;;1.41;48.61;101731.44;5006480;28;20044;-69
2021/01/06 08:10:42;;;;;;;;;;;;;;;1.44;48.63;101736.66;5007473;28;20093;-70
2021/01/06 08:13:08;;;;;;;3.35;1.00;;;;;;;1.57;48.27;101731.63;5008036;28;19925;-68
2021/01/06 08:15:33;;;;;;;7.85;1.25;;;;;;;1.38;48.71;101731.38;5005606;28;20036;-70
2021/01/06 08:18:24;;;;;;;4.40;1.60;;;;;;;1.47;48.22;101726.38;5004645;28;20034;-67
2021/01/06 08:21:07;;;;;;;8.05;1.85;;;;;;;1.56;48.68;101729.91;5006398;28;20061;-68
2021/01/06 08:23:57;;;;;;;3.83;1.02;;;;;;;1.34;48.87;101721.88;5004777;28;20034;-69
2021/01/06 08:26:26;;;;;;;1.83;0.80;;;;;;;1.16;49.33;101729.38;5022205;28;20476;-69
2021/01/06 08:29:20;;;;;;;5.80;1.10;;;;;;;1.37;49.29;101726.19;5007316;28;20200;-68
2021/01/06 08:31:49;;;;;;;2.58;1.33;;;;;;;1.67;48.36;101731.75;5019945;28;20029;-67
2021/01/06 08:34:27;;;;;;;3.20;0.90;;;;;;;1.75;48.23;101724.06;5007437;28;20029;-71
2021/01/06 08:37:00;;;;;;;2.15;0.75;;;;;;;1.83;48.28;101725.03;5006363;28;20053;-68
2021/01/06 08:39:27;;;;;;;4.47;1.30;;;;;;;1.80;48.10;101727.59;5005824;28;20042;-70
2021/01/06 08:42:05;;;;;;;3.50;1.05;;;;;;;1.93;47.85;101721.69;5005387;28;20080;-68
2021/01/06 08:44:46;;;;;;;3.00;1.02;;;;;;;1.85;48.15;101718.19;5012162;28;20052;-68
2021/01/06 08:47:25;;;;;;;2.72;0.85;;;;;;;1.85;48.28;101723.34;5009258;28;20037;-68
2021/01/06 08:49:51;;;;;;;5.57;1.33;;;;;;;1.72;48.39;101717.19;5004972;28;20551;-67
2021/01/06 08:52:16;;;;;;;3.30;0.70;;;;;;;1.76;48.61;101719.81;5005535;28;20033;-69
2021/01/06 08:54:44;;;;;;;5.80;1.23;;;;;;;1.62;48.89;101719.66;5002042;28;20515;-68
2021/01/06 08:57:35;;;;;;;2.58;0.68;;;;;;;1.91;47.94;101723.41;4987323;28;20057;-68
2021/01/06 09:00:26;;;;;;;4.32;1.13;;;;;;;1.67;48.27;101723.16;5003739;28;20384;-68
2021/01/06 09:03:08;;;;;;;3.90;1.20;;;;;;;1.39;49.27;101722.78;5006143;28;20113;-72
2021/01/06 09:05:45;;;;;;;2.35;0.93;;;;;;;1.80;48.02;101719.84;5001937;28;20113;-71
2021/01/06 09:08:17;;;;;;;2.38;1.00;;;;;;;1.83;47.62;101714.72;5007122;28;20499;-69
2021/01/06 09:11:07;;;;;;;2.40;0.65;;;;;;;1.83;47.55;101719.88;5008386;28;20065;-68
2021/01/06 09:13:39;;;;;;;3.85;1.23;;;;;;;1.78;48.17;101713.81;5011011;28;20038;-67
2021/01/06 09:16:22;;;;;;;7.75;1.05;;;;;;;1.77;48.25;101719.81;5019015;28;20034;-69
2021/01/06 09:19:02;;;;;;;3.78;0.98;;;;;;;1.91;48.14;101718.25;5025760;28;20172;-68
2021/01/06 09:21:30;;;;;;;1.98;1.02;;;;;;;1.97;47.83;101711.41;5006127;28;20046;-67
2021/01/06 09:24:03;;;;;;;2.83;1.02;;;;;;;2.01;48.01;101710.59;5008479;28;20033;-67
2021/01/06 09:26:30;;;;;;;4.13;1.65;;;;;;;2.01;48.17;101711.44;5008535;28;20025;-68
2021/01/06 09:29:07;;;;;;;2.17;1.10;;;;;;;2.10;48.04;101708.94;5006209;28;20128;-68
2021/01/06 09:31:41;;;;;;;7.40;1.45;;;;;;;2.01;48.37;101710.59;5024680;28;20034;-68
2021/01/06 09:34:09;;;;;;;3.00;1.08;;;;;;;2.03;48.64;101701.16;5007424;28;20117;-69
2021/01/06 09:36:35;;;;;;;3.25;1.42;;;;;;;2.08;48.34;101702.91;5008111;28;20029;-69
2021/01/06 09:39:05;;;;;;;10.27;1.00;;;;;;;2.26;48.09;101699.63;5005963;28;20522;-68
2021/01/06 09:41:33;;;;;;;5.47;1.35;;;;;;;1.91;48.48;101696.75;5009384;28;20641;-67
2021/01/06 09:44:07;;;;;;;2.42;1.00;;;;;;;2.07;48.77;101700.34;5007736;28;20056;-67
2021/01/06 09:47:07;;;;;;;4.45;1.67;;;;;;;2.20;48.77;101701.28;5006683;28;20034;-69
2021/01/06 09:49:37;;;;;;;4.85;1.45;;;;;;;2.18;48.97;101692.69;5005174;28;20390;-70
2021/01/06 09:52:07;;;;;;;4.53;1.00;;;;;;;1.99;49.47;101695.09;5009346;28;20061;-69
2021/01/06 09:54:34;;;;;;;5.45;1.27;;;;;;;1.80;49.60;101688.91;5006762;28;20044;-68
2021/01/06 09:57:00;;;;;;;7.32;1.25;;;;;;;1.92;49.64;101691.59;5009032;28;20107;-69
2021/01/06 09:59:30;;;;;;;3.38;1.10;;;;;;;1.79;49.94;101679.44;5008780;28;20065;-70
2021/01/06 10:02:05;;;;;;;6.22;1.50;;;;;;;2.15;49.01;101685.75;5009448;28;20100;-68
2021/01/06 10:04:41;;;;;;;4.75;1.60;;;;;;;1.88;49.84;101684.69;5009566;28;20041;-69
2021/01/06 10:07:42;;;;;;;5.38;1.17;;;;;;;1.93;49.71;101680.44;5007313;28;20034;-68
2021/01/06 10:10:18;;;;;;;3.58;1.15;;;;;;;1.77;50.27;101672.53;5006009;28;20499;-68
2021/01/06 10:12:57;;;;;;;3.35;1.00;;;;;;;2.19;48.92;101677.22;5021214;28;20057;-70
2021/01/06 10:15:37;;;;;;;2.58;0.63;;;;;;;1.89;49.48;101670.09;5007754;28;20058;-67
2021/01/06 10:18:19;;;;;;;5.53;1.25;;;;;;;2.00;49.62;101671.06;5006191;28;20041;-68
2021/01/06 10:20:52;;;;;;;1.75;0.50;;;;;;;2.00;49.13;101667.59;5001938;28;20041;-68
2021/01/06 10:23:42;;;;;;;3.75;1.10;;;;;;;1.74;49.68;101663.06;5015020;28;20129;-68
2021/01/06 10:26:42;;;;;;;4.63;0.80;;;;;;;2.05;48.88;101666.78;5008620;28;20056;-66
2021/01/06 10:29:28;;;;;;;5.38;0.98;;;;;;;1.92;49.30;101663.22;5006968;28;20554;-67
2021/01/06 10:32:10;;;;;;;12.55;3.08;;;;;;;2.08;49.25;101663.38;5004873;28;20026;-67
2021/01/06 10:34:40;;;;;;;2.90;1.10;;;;;;;2.09;49.31;101655.66;5018807;28;20070;-68
2021/01/06 10:37:06;;;;;;;2.20;0.82;;;;;;;1.65;50.18;101652.69;5007286;28;20058;-68
2021/01/06 10:39:47;;;;;;;2.15;0.80;;;;;;;2.18;48.78;101648.84;5005604;28;20034;-68
2021/01/06 10:42:22;;;;;;;3.22;1.08;;;;;;;1.54;50.53;101649.13;5006285;28;20041;-69
2021/01/06 10:44:56;;;;;;;6.07;1.40;;;;;;;1.60;50.18;101650.06;4989247;28;20037;-67
2021/01/06 10:47:38;;;;;;;3.00;1.52;;;;;;;2.06;49.17;101650.44;5006009;28;20137;-68
2021/01/06 10:50:22;;;;;;;4.82;1.05;;;;;;;1.91;49.84;101638.31;5003054;28;20072;-66
2021/01/06 10:53:07;;;;;;;7.55;1.15;;;;;;;2.21;49.26;101634.25;4985397;28;20077;-66
2021/01/06 10:55:45;;;;;;;4.45;0.85;;;;;;;1.90;49.77;101639.16;5006995;28;20290;-66
2021/01/06 10:58:35;;;;;;;5.35;1.00;;;;;;;2.11;49.13;101632.47;5005585;28;20156;-66
2021/01/06 11:01:10;;;;;;;7.13;1.38;;;;;;;2.15;48.91;101623.88;5006322;28;20060;-68
2021/01/06 11:04:09;;;;;;;1.73;0.80;;;;;;;1.91;49.84;101625.44;5003870;28;20030;-70
2021/01/06 11:06:44;;;;;;;4.78;1.50;;;;;;;1.85;50.03;101620.22;5016441;28;20845;-69
2021/01/06 11:09:44;;;;;;;4.13;1.00;;;;;;;1.91;49.89;101617.69;5004482;28;20094;-67
2021/01/06 11:12:20;;;;;;;6.47;1.20;;;;;;;2.03;49.54;101608.31;5021605;28;20045;-69
2021/01/06 11:15:24;;;;;;;1.52;0.63;;;;;;;1.58;50.51;101604.53;5007773;28;20128;-68
2021/01/06 11:18:17;;;;;;;3.70;0.73;;;;;;;1.92;50.21;101598.78;4942591;28;20038;-68
2021/01/06 11:20:45;;;;;;;;;;;;;;;1.94;49.96;101591.94;5006679;28;20037;-67
2021/01/06 11:23:42;;;;;;;4.57;1.00;;;;;;;1.78;50.40;101596.97;5009018;28;19913;-67
2021/01/06 11:26:32;;;;;;;2.75;1.20;;;;;;;1.79;50.51;101590.94;5003151;28;20380;-67
2021/01/06 11:29:48;;;;;;;2.15;1.10;;;;;;;1.97;49.89;101587.66;5018063;28;20042;-66
2021/01/06 11:32:34;;;;;;;5.72;1.38;;;;;;;1.87;50.07;101584.16;5004184;28;20034;-67
2021/01/06 11:35:21;;;;;;;7.80;1.50;;;;;;;2.32;49.32;101572.41;5002491;28;20041;-68
2021/01/06 11:37:47;;;;;;;6.82;1.17;;;;;;;2.14;49.40;101580.91;5003792;28;20072;-68
2021/01/06 11:40:15;;;;;;;8.82;2.50;;;;;;;2.15;49.33;101567.13;5003017;28;20058;-66
2021/01/06 11:42:49;;;;;;;6.13;1.25;;;;;;;2.04;49.82;101568.78;5004834;28;20030;-67
2021/01/06 11:45:20;;;;;;;4.03;1.15;;;;;;;2.06;49.48;101567.06;5017805;28;20563;-67
2021/01/06 11:47:50;;;;;;;5.80;1.42;;;;;;;1.53;50.82;101571.00;5004436;28;20112;-65
2021/01/06 11:50:41;;;;;;;5.60;1.20;;;;;;;2.09;49.61;101556.81;5004320;28;20034;-67
2021/01/06 11:53:07;;;;;;;7.75;1.35;;;;;;;1.76;50.41;101560.88;5018623;28;20038;-67
2021/01/06 11:55:38;;;;;;;3.40;0.90;;;;;;;1.75;50.43;101560.84;4987721;28;20081;-66
2021/01/06 11:58:32;;;;;;;7.72;1.13;;;;;;;2.03;50.15;101556.75;5004095;28;20037;-67
2021/01/06 12:01:18;;;;;;;4.72;1.10;;;;;;;2.01;50.10;101548.16;5003906;28;20037;-68
2021/01/06 12:04:16;;;;;;;2.28;0.70;;;;;;;1.91;50.46;101540.34;5001847;28;20041;-66
2021/01/06 12:06:57;;;;;;;6.70;1.33;;;;;;;2.03;49.79;101541.28;5017437;28;20034;-67
2021/01/06 12:09:45;;;;;;;7.22;1.20;;;;;;;2.29;49.46;101526.81;5000539;28;20125;-67
2021/01/06 12:12:13;;;;;;;4.85;0.90;;;;;;;2.14;49.78;101531.88;5002913;28;20041;-67
2021/01/06 12:14:52;;;;;;;2.67;0.95;;;;;;;2.01;49.74;101527.50;5006340;28;20048;-67